Time;durP1;ratioP1;P1;durP2;ratioP2;P2;SDS_P1;SDS_P2;PMS_P1;PMS_P2;Temp;Humidity;BMP_temperature;BMP_pressure;BME280_temperature;BME280_humidity;BME280_pressure;Samples;Min_cycle;Max_cycle;Signal;HPM_P1;HPM_P2
2023/07/10 00:01:01;;;;;;;2.30;2.00;;;;;;;30.30;41.55;101904.38;4997264;28;97707;-79
2023/07/10 00:03:28;;;;;;;2.90;2.20;;;;;;;30.31;41.13;101908.84;4998415;28;96951;-79
2023/07/10 00:05:56;;;;;;;2.08;1.88;;;;;;;30.30;41.21;101905.22;4998286;28;96688;-79
2023/07/10 00:08:23;;;;;;;1.75;1.60;;;;;;;30.30;41.25;101899.69;4995363;28;99058;-79
2023/07/10 00:10:50;;;;;;;2.50;2.30;;;;;;;30.31;41.59;101900.53;4990788;28;97876;-79
2023/07/10 00:13:21;;;;;;;1.95;1.77;;;;;;;30.31;41.49;101906.09;4996113;28;97459;-79
2023/07/10 00:15:50;;;;;;;2.53;1.80;;;;;;;30.31;41.36;101897.78;4998521;28;96699;-79
2023/07/10 00:18:21;;;;;;;2.80;2.17;;;;;;;30.30;41.42;101905.22;4980219;28;97134;-79
2023/07/10 00:20:49;;;;;;;2.95;2.20;;;;;;;30.29;41.39;101911.84;4979415;28;96698;-79
2023/07/10 00:23:17;;;;;;;2.10;1.90;;;;;;;30.29;41.61;101909.06;4977633;28;99623;-79
2023/07/10 00:25:44;;;;;;;3.22;2.15;;;;;;;30.30;41.38;101908.00;4978894;28;96507;-80
2023/07/10 00:28:20;;;;;;;2.28;2.00;;;;;;;30.30;41.47;101908.00;4972097;28;96640;-79
2023/07/10 00:30:49;;;;;;;2.42;1.85;;;;;;;30.30;41.56;101910.78;4997443;28;100155;-79
2023/07/10 00:33:19;;;;;;;2.00;1.80;;;;;;;30.30;41.61;101907.16;4991107;28;97279;-79
2023/07/10 00:35:46;;;;;;;2.47;2.22;;;;;;;30.29;41.39;101906.28;4995550;28;96690;-79
2023/07/10 00:38:29;;;;;;;2.30;1.90;;;;;;;30.29;41.40;101900.75;4997484;28;96952;-79
2023/07/10 00:40:58;;;;;;;2.05;1.85;;;;;;;30.28;41.43;101893.50;4977264;28;99687;-79
2023/07/10 00:43:34;;;;;;;2.47;2.10;;;;;;;30.29;41.42;101897.13;4980832;28;97661;-79
2023/07/10 00:46:15;;;;;;;3.92;1.80;;;;;;;30.29;41.58;101894.34;4997834;28;97251;-79
2023/07/10 00:48:50;;;;;;;2.35;1.92;;;;;;;30.28;41.17;101900.97;4986591;28;96854;-79
2023/07/10 00:51:31;;;;;;;2.65;1.77;;;;;;;30.27;41.55;101894.56;4981406;28;96712;-79
2023/07/10 00:54:01;;;;;;;2.25;1.98;;;;;;;30.26;41.40;101884.56;4998032;28;97319;-79
2023/07/10 00:56:38;;;;;;;2.75;1.90;;;;;;;30.27;41.45;101894.56;4980797;28;96704;-79
2023/07/10 00:59:26;;;;;;;3.03;2.05;;;;;;;30.28;41.28;101889.88;4965903;28;96948;-79
2023/07/10 01:02:08;;;;;;;2.38;1.80;;;;;;;30.26;41.35;101895.63;4977928;28;99719;-79
2023/07/10 01:04:39;;;;;;;1.75;1.65;;;;;;;30.25;41.55;101893.94;4978765;28;97259;-79
2023/07/10 01:07:09;;;;;;;2.40;1.80;;;;;;;30.25;41.57;101893.94;4997646;28;97130;-79
2023/07/10 01:09:37;;;;;;;1.98;1.77;;;;;;;30.26;41.16;101895.63;4994965;28;98963;-79
2023/07/10 01:12:05;;;;;;;2.45;2.10;;;;;;;30.26;41.32;101892.00;4993552;28;96744;-79
2023/07/10 01:14:34;;;;;;;3.22;1.90;;;;;;;30.26;41.55;101895.63;4980098;28;97438;-79
2023/07/10 01:17:07;;;;;;;2.28;2.00;;;;;;;30.26;41.22;101912.25;4996071;28;96870;-79
2023/07/10 01:19:35;;;;;;;3.75;2.10;;;;;;;30.26;41.46;101912.25;4996180;28;97316;-79
2023/07/10 01:22:03;;;;;;;2.10;1.70;;;;;;;30.26;41.30;101914.19;4978013;28;98959;-79
2023/07/10 01:24:30;;;;;;;2.67;2.17;;;;;;;30.25;41.51;101912.47;4995079;28;99479;-79
2023/07/10 01:26:57;;;;;;;2.40;1.80;;;;;;;30.26;41.33;101912.25;4996541;28;97049;-79
2023/07/10 01:29:36;;;;;;;2.47;1.90;;;;;;;30.27;41.28;101902.03;4980422;28;97017;-79
2023/07/10 01:32:05;;;;;;;2.00;1.80;;;;;;;30.26;41.56;101905.88;4978337;28;96907;-79
2023/07/10 01:34:38;;;;;;;2.00;1.80;;;;;;;30.26;41.53;101900.34;4988378;28;96820;-79
2023/07/10 01:37:06;;;;;;;2.38;1.80;;;;;;;30.25;41.22;101905.03;4994910;28;97266;-79
2023/07/10 01:39:41;;;;;;;2.53;2.00;;;;;;;30.25;41.34;101916.09;4993297;28;96600;-79
2023/07/10 01:42:08;;;;;;;2.17;1.65;;;;;;;30.24;41.40;101914.41;4977020;28;98707;-79
2023/07/10 01:44:39;;;;;;;2.65;2.30;;;;;;;30.24;41.54;101911.63;4978623;28;100350;-79
2023/07/10 01:47:08;;;;;;;2.58;1.70;;;;;;;30.24;41.64;101908.84;4979721;28;97285;-79
2023/07/10 01:49:44;;;;;;;3.08;2.10;;;;;;;30.25;41.25;101906.94;4995729;28;96766;-79
2023/07/10 01:52:18;;;;;;;2.08;1.63;;;;;;;30.24;41.47;101902.47;4999826;28;97270;-79
2023/07/10 01:54:45;;;;;;;2.53;2.00;;;;;;;30.22;41.56;101905.44;4994119;28;98117;-79
2023/07/10 01:57:13;;;;;;;2.08;1.60;;;;;;;30.22;41.24;101905.44;4979024;28;96860;-79
2023/07/10 01:59:40;;;;;;;2.58;2.15;;;;;;;30.24;41.23;101902.47;4998385;28;96668;-79
2023/07/10 02:02:08;;;;;;;1.98;1.77;;;;;;;30.24;41.47;101905.22;4980480;28;98971;-79
2023/07/10 02:04:35;;;;;;;2.50;1.90;;;;;;;30.22;41.40;101905.44;4992100;28;96892;-80
2023/07/10 02:07:02;;;;;;;2.03;1.83;;;;;;;30.24;41.57;101916.31;4990755;28;96878;-79
2023/07/10 02:09:30;;;;;;;2.63;1.80;;;;;;;30.22;41.29;101913.75;4995798;28;96762;-79
2023/07/10 02:11:58;;;;;;;2.13;1.80;;;;;;;30.22;41.69;101916.53;4970365;28;96870;-79
2023/07/10 02:14:25;;;;;;;2.40;2.00;;;;;;;30.22;41.22;101908.22;4995967;28;97952;-79
2023/07/10 02:16:52;;;;;;;1.85;1.67;;;;;;;30.23;41.45;101914.63;4980343;28;96821;-79
2023/07/10 02:19:19;;;;;;;2.38;1.90;;;;;;;30.22;41.54;101919.31;4995341;28;96446;-79
2023/07/10 02:21:46;;;;;;;2.15;1.85;;;;;;;30.21;41.54;101914.81;4990397;28;97536;-79
2023/07/10 02:24:13;;;;;;;2.53;2.13;;;;;;;30.21;41.26;101909.28;4979918;28;97869;-79
2023/07/10 02:26:40;;;;;;;1.95;1.60;;;;;;;30.21;41.52;101917.59;4993433;28;96644;-79
2023/07/10 02:29:07;;;;;;;1.98;1.77;;;;;;;30.21;41.48;101927.81;4998057;28;98590;-79
2023/07/10 02:31:33;;;;;;;2.35;2.10;;;;;;;30.21;41.13;101933.38;4990930;28;97068;-79
2023/07/10 02:34:00;;;;;;;2.00;1.58;;;;;;;30.22;41.28;101943.38;4973256;28;100691;-79
2023/07/10 02:36:28;;;;;;;2.40;2.20;;;;;;;30.22;41.50;101941.47;4993973;28;96704;-79
2023/07/10 02:38:55;;;;;;;2.00;1.80;;;;;;;30.21;41.49;101937.00;4997086;28;96858;-79
2023/07/10 02:41:22;;;;;;;1.92;1.70;;;;;;;30.20;41.21;101938.06;4994669;28;98229;-79
2023/07/10 02:43:49;;;;;;;1.92;1.30;;;;;;;30.21;41.50;101947.22;4975684;28;98810;-79
2023/07/10 02:46:17;;;;;;;2.33;1.75;;;;;;;30.20;41.25;101949.16;4993298;28;96681;-79
2023/07/10 02:48:45;;;;;;;1.48;1.30;;;;;;;30.20;41.23;101938.06;4989823;28;96785;-80
2023/07/10 02:51:12;;;;;;;2.30;1.77;;;;;;;30.20;41.19;101943.59;4990954;28;97858;-80
2023/07/10 02:53:40;;;;;;;1.80;1.65;;;;;;;30.20;41.23;101942.75;4996388;28;96879;-80
2023/07/10 02:56:06;;;;;;;2.00;1.70;;;;;;;30.20;41.29;101939.97;4977313;28;96595;-79
2023/07/10 02:58:33;;;;;;;2.15;1.77;;;;;;;30.19;41.43;101930.81;4977718;28;96763;-79
2023/07/10 03:01:01;;;;;;;2.00;1.52;;;;;;;30.21;41.37;101938.91;4993376;28;96684;-79
2023/07/10 03:03:29;;;;;;;1.90;1.60;;;;;;;30.20;41.25;101929.75;4980323;28;96919;-79
2023/07/10 03:05:57;;;;;;;1.67;1.58;;;;;;;30.20;41.32;101937.22;4991002;28;97428;-79
2023/07/10 03:08:25;;;;;;;2.45;1.55;;;;;;;30.20;41.37;101945.53;4978623;28;97055;-79
2023/07/10 03:11:02;;;;;;;2.42;2.00;;;;;;;30.20;41.26;101940.84;4973209;28;97082;-79
2023/07/10 03:13:29;;;;;;;1.77;1.50;;;;;;;30.18;41.44;101942.97;4988925;28;97061;-79
2023/07/10 03:15:59;;;;;;;2.17;1.52;;;;;;;30.19;41.47;101947.44;4990100;28;96737;-79
2023/07/10 03:18:25;;;;;;;2.35;1.40;;;;;;;30.18;41.42;101942.97;4993931;28;97905;-79
2023/07/10 03:20:52;;;;;;;1.95;1.70;;;;;;;30.17;41.17;101938.47;4978241;28;99795;-79
2023/07/10 03:23:18;;;;;;;2.30;1.75;;;;;;;30.17;41.36;101935.72;4978816;28;99458;-79
2023/07/10 03:25:45;;;;;;;1.70;1.48;;;;;;;30.19;41.20;101946.59;4993703;28;96861;-79
2023/07/10 03:28:12;;;;;;;2.75;1.60;;;;;;;30.17;41.44;101952.34;4991909;28;96633;-79
2023/07/10 03:30:40;;;;;;;1.50;1.40;;;;;;;30.17;41.65;101957.03;4970423;28;98608;-79
2023/07/10 03:33:06;;;;;;;1.85;1.65;;;;;;;30.16;41.57;101970.03;4995050;28;98483;-79
2023/07/10 03:35:33;;;;;;;1.55;1.42;;;;;;;30.18;41.42;101972.59;4995051;28;96538;-79
2023/07/10 03:37:59;;;;;;;1.98;1.70;;;;;;;30.17;41.29;101979.19;4998349;28;96014;-79
2023/07/10 03:40:26;;;;;;;2.00;1.70;;;;;;;30.17;41.11;101984.72;4975041;28;100884;-79
2023/07/10 03:42:52;;;;;;;1.92;1.70;;;;;;;30.17;41.14;101991.13;4997120;28;97049;-79
2023/07/10 03:45:19;;;;;;;2.00;1.67;;;;;;;30.17;41.17;101987.50;4997339;28;96642;-79
2023/07/10 03:47:46;;;;;;;2.78;1.90;;;;;;;30.17;41.37;101981.97;4996948;28;96625;-79
2023/07/10 03:50:12;;;;;;;1.80;1.60;;;;;;;30.17;41.53;101979.19;4999621;28;97095;-79
2023/07/10 03:52:39;;;;;;;1.67;1.42;;;;;;;30.16;41.29;101975.56;4998176;28;97429;-79
2023/07/10 03:55:06;;;;;;;1.83;1.60;;;;;;;30.16;41.38;101983.88;4988276;28;96709;-79
2023/07/10 03:57:33;;;;;;;2.25;1.70;;;;;;;30.16;41.17;101983.88;4999659;28;96666;-79
2023/07/10 03:59:59;;;;;;;2.20;1.67;;;;;;;30.15;41.12;101984.94;4983410;28;96884;-79
2023/07/10 04:02:26;;;;;;;1.98;1.52;;;;;;;30.14;41.29;101986.00;4996160;28;96851;-79
2023/07/10 04:04:52;;;;;;;1.98;1.65;;;;;;;30.15;41.22;101984.94;4991418;28;96799;-79
2023/07/10 04:07:19;;;;;;;2.03;1.50;;;;;;;30.15;41.16;101978.56;5000333;28;96589;-79
2023/07/10 04:09:46;;;;;;;2.45;1.80;;;;;;;30.15;41.39;101984.94;5001865;28;96719;-79
2023/07/10 04:12:12;;;;;;;1.98;1.70;;;;;;;30.15;41.04;101984.09;4982000;28;98471;-79
2023/07/10 04:14:39;;;;;;;2.00;1.70;;;;;;;30.14;41.35;101980.47;4999588;28;96495;-79
2023/07/10 04:17:06;;;;;;;1.90;1.52;;;;;;;30.15;41.11;101992.41;4999523;28;96775;-79
2023/07/10 04:19:32;;;;;;;1.73;1.48;;;;;;;30.14;41.10;101986.00;4982975;28;99965;-80
2023/07/10 04:21:59;;;;;;;1.42;1.13;;;;;;;30.14;41.30;101994.31;5015828;28;96879;-79
2023/07/10 04:24:25;;;;;;;1.70;1.60;;;;;;;30.14;41.18;102001.78;5003588;28;97084;-79
2023/07/10 04:26:52;;;;;;;1.63;1.52;;;;;;;30.14;41.12;102001.78;5003410;28;97259;-79
2023/07/10 04:29:19;;;;;;;1.60;1.50;;;;;;;30.13;41.25;102000.94;5000774;28;96968;-79
2023/07/10 04:31:46;;;;;;;1.80;1.60;;;;;;;30.14;41.47;102012.88;4997022;28;96651;-79
2023/07/10 04:34:12;;;;;;;1.50;1.33;;;;;;;30.13;41.49;102006.47;4996168;28;96702;-79
2023/07/10 04:36:39;;;;;;;2.03;1.70;;;;;;;30.13;41.19;102008.38;4995409;28;97043;-79
2023/07/10 04:39:05;;;;;;;1.40;1.20;;;;;;;30.14;41.17;102004.56;4996043;28;96824;-79
2023/07/10 04:41:32;;;;;;;1.38;1.23;;;;;;;30.14;41.01;102001.78;4979281;28;96841;-79
2023/07/10 04:43:59;;;;;;;2.05;1.85;;;;;;;30.13;40.95;102003.69;4995192;28;96728;-79
2023/07/10 04:46:26;;;;;;;1.70;1.60;;;;;;;30.14;41.39;102005.41;4981567;28;97064;-79
2023/07/10 04:48:53;;;;;;;1.42;1.30;;;;;;;30.13;41.15;102003.69;4995575;28;97554;-79
2023/07/10 04:51:20;;;;;;;1.83;1.38;;;;;;;30.13;41.22;102002.84;4980289;28;99903;-79
2023/07/10 04:53:47;;;;;;;1.90;1.50;;;;;;;30.13;41.24;101998.16;4979884;28;96703;-79
2023/07/10 04:56:16;;;;;;;1.70;1.60;;;;;;;30.13;41.24;102000.06;4996545;28;96616;-79
2023/07/10 04:58:54;;;;;;;1.50;1.40;;;;;;;30.14;41.29;101991.56;4972550;28;96882;-79
2023/07/10 05:01:24;;;;;;;1.58;1.20;;;;;;;30.13;41.25;102016.69;4996688;28;99645;-79
2023/07/10 05:03:51;;;;;;;1.67;1.48;;;;;;;30.12;41.05;102015.84;4995890;28;96727;-79
2023/07/10 05:06:19;;;;;;;2.20;1.65;;;;;;;30.13;41.13;102016.69;4997107;28;96709;-79
2023/07/10 05:08:46;;;;;;;2.15;1.48;;;;;;;30.13;41.05;102017.56;4997032;28;97300;-79
2023/07/10 05:11:14;;;;;;;1.30;1.17;;;;;;;30.13;41.33;102019.47;4986400;28;97833;-79
2023/07/10 05:13:40;;;;;;;2.17;1.50;;;;;;;30.12;40.93;102015.00;4996024;28;96808;-79
2023/07/10 05:16:07;;;;;;;1.95;1.63;;;;;;;30.13;41.17;102025.00;4996796;28;97172;-79
2023/07/10 05:18:34;;;;;;;2.67;1.52;;;;;;;30.13;40.98;102034.19;4979665;28;97332;-79
2023/07/10 05:21:03;;;;;;;2.28;1.52;;;;;;;30.13;40.92;102027.78;4996974;28;96871;-79
2023/07/10 05:23:30;;;;;;;1.55;1.30;;;;;;;30.12;41.04;102026.94;4993787;28;97583;-79
2023/07/10 05:26:06;;;;;;;1.23;1.13;;;;;;;30.15;41.37;102025.66;4966584;28;96662;-79
2023/07/10 05:28:34;;;;;;;1.88;1.25;;;;;;;30.12;41.40;102024.16;4979563;28;98661;-79
2023/07/10 05:31:03;;;;;;;1.85;1.40;;;;;;;30.12;40.90;102024.16;4985739;28;97920;-79
2023/07/10 05:33:30;;;;;;;1.60;1.40;;;;;;;30.13;41.30;102025.00;4994407;28;96840;-79
2023/07/10 05:36:03;;;;;;;1.50;1.33;;;;;;;30.13;41.28;102027.78;4997549;28;96781;-79
2023/07/10 05:38:32;;;;;;;1.50;1.40;;;;;;;30.13;41.17;102030.56;4998248;28;97957;-79
2023/07/10 05:40:59;;;;;;;2.08;1.60;;;;;;;30.12;41.21;102032.47;4980167;28;97965;-79
2023/07/10 05:43:28;;;;;;;1.80;1.40;;;;;;;30.13;41.25;102025.88;4992657;28;96730;-79
2023/07/10 05:45:55;;;;;;;2.35;1.50;;;;;;;30.13;41.23;102025.00;4996072;28;96551;-79
2023/07/10 05:48:22;;;;;;;1.63;1.52;;;;;;;30.13;41.34;102036.94;4973945;28;98979;-80
2023/07/10 05:50:50;;;;;;;1.67;1.40;;;;;;;30.13;41.42;102036.09;4968916;28;98746;-79
2023/07/10 05:53:18;;;;;;;1.50;1.40;;;;;;;30.13;41.08;102036.94;4996068;28;96800;-80
2023/07/10 05:55:46;;;;;;;2.22;1.30;;;;;;;30.13;41.32;102027.78;5000418;28;96853;-80
2023/07/10 05:58:16;;;;;;;2.17;1.80;;;;;;;30.14;41.23;102037.81;4967436;28;98695;-79
2023/07/10 06:00:43;;;;;;;1.83;1.30;;;;;;;30.13;41.25;102036.94;4983326;28;96858;-79
2023/07/10 06:03:10;;;;;;;2.33;1.50;;;;;;;30.13;41.34;102036.09;4979939;28;96668;-80
2023/07/10 06:05:37;;;;;;;2.50;1.30;;;;;;;30.14;41.34;102038.66;4985185;28;96689;-79
2023/07/10 06:08:05;;;;;;;1.20;1.10;;;;;;;30.14;41.06;102035.03;4985626;28;97883;-79
2023/07/10 06:10:35;;;;;;;2.10;1.23;;;;;;;30.15;41.27;102040.38;4971012;28;98991;-79
2023/07/10 06:13:02;;;;;;;1.42;1.30;;;;;;;30.15;41.27;102036.75;4985349;28;97072;-78
2023/07/10 06:15:30;;;;;;;1.92;1.30;;;;;;;30.14;41.26;102033.13;4970977;28;97737;-78
2023/07/10 06:17:56;;;;;;;1.38;1.23;;;;;;;30.14;41.11;102038.66;4982834;28;98229;-79
2023/07/10 06:20:23;;;;;;;1.70;1.27;;;;;;;30.14;41.24;102033.13;4986759;28;97685;-78
2023/07/10 06:22:49;;;;;;;1.10;1.00;;;;;;;30.14;41.16;102038.66;4964780;28;96621;-78
2023/07/10 06:25:16;;;;;;;1.95;1.27;;;;;;;30.15;41.15;102039.50;4981048;28;97265;-78
2023/07/10 06:27:43;;;;;;;1.83;1.42;;;;;;;30.15;40.95;102040.38;4968007;28;96884;-78
2023/07/10 06:30:11;;;;;;;1.77;1.40;;;;;;;30.16;41.10;102038.44;4976276;28;97509;-78
2023/07/10 06:32:37;;;;;;;2.05;1.30;;;;;;;30.16;41.27;102038.44;4977809;28;96831;-78
2023/07/10 06:35:05;;;;;;;1.38;1.23;;;;;;;30.15;41.23;102037.59;4974736;28;96625;-79
2023/07/10 06:37:32;;;;;;;1.23;1.10;;;;;;;30.16;41.27;102039.31;4966135;28;97777;-79
2023/07/10 06:40:11;;;;;;;1.90;1.15;;;;;;;30.16;41.20;102042.06;4959373;28;96902;-79
2023/07/10 06:42:40;;;;;;;1.88;1.45;;;;;;;30.16;41.26;102049.53;4981766;28;96881;-78
2023/07/10 06:45:11;;;;;;;2.78;1.25;;;;;;;30.15;41.42;102054.22;4979197;28;96575;-78
2023/07/10 06:47:40;;;;;;;1.52;1.20;;;;;;;30.16;41.59;102055.94;4963175;28;99295;-78
2023/07/10 06:50:08;;;;;;;1.90;1.40;;;;;;;30.17;41.37;102062.31;4966342;28;99997;-78
2023/07/10 06:52:37;;;;;;;1.92;1.40;;;;;;;30.17;41.23;102063.19;4977231;28;96810;-78
2023/07/10 06:55:05;;;;;;;2.63;1.27;;;;;;;30.18;41.32;102061.25;4974127;28;98256;-77
2023/07/10 06:57:32;;;;;;;1.27;1.00;;;;;;;30.17;41.10;102063.19;4982040;28;99102;-77
2023/07/10 06:59:59;;;;;;;2.47;1.30;;;;;;;30.17;41.13;102056.78;4981256;28;97256;-77
2023/07/10 07:02:26;;;;;;;2.10;1.35;;;;;;;30.17;41.09;102060.41;4981497;28;96770;-77
2023/07/10 07:04:53;;;;;;;2.33;1.20;;;;;;;30.17;41.23;102063.19;4963195;28;97193;-76
2023/07/10 07:07:19;;;;;;;1.65;1.13;;;;;;;30.16;41.09;102067.00;4986724;28;98113;-77
2023/07/10 07:09:49;;;;;;;1.48;1.20;;;;;;;30.17;41.03;102060.41;4985642;28;97004;-77
2023/07/10 07:12:16;;;;;;;1.55;1.10;;;;;;;30.18;41.24;102070.41;4985695;28;97842;-78
2023/07/10 07:14:42;;;;;;;2.92;1.30;;;;;;;30.18;41.10;102069.56;4983601;28;97243;-78
2023/07/10 07:17:09;;;;;;;2.08;1.25;;;;;;;30.18;41.11;102075.97;4987529;28;97549;-77
2023/07/10 07:19:36;;;;;;;1.90;1.10;;;;;;;30.19;41.36;102071.28;4987317;28;96696;-77
2023/07/10 07:22:03;;;;;;;1.20;0.93;;;;;;;30.17;40.85;102065.09;4978320;28;97135;-78
2023/07/10 07:24:29;;;;;;;2.08;1.38;;;;;;;30.18;40.99;102072.34;4970762;28;96947;-77
2023/07/10 07:26:56;;;;;;;1.67;1.05;;;;;;;30.18;41.03;102070.41;4984077;28;97683;-79
2023/07/10 07:29:23;;;;;;;2.15;1.38;;;;;;;30.19;40.95;102071.28;4988510;28;99781;-78
2023/07/10 07:31:49;;;;;;;2.05;1.50;;;;;;;30.18;40.96;102064.88;4974469;28;97261;-78
2023/07/10 07:34:16;;;;;;;1.33;1.13;;;;;;;30.19;40.73;102068.50;4981138;28;96271;-78
2023/07/10 07:36:42;;;;;;;2.25;1.10;;;;;;;30.19;40.68;102066.59;4984549;28;96768;-78
2023/07/10 07:39:09;;;;;;;1.50;1.00;;;;;;;30.18;40.69;102070.41;4979771;28;100221;-78
2023/07/10 07:41:36;;;;;;;1.92;1.30;;;;;;;30.19;40.74;102072.13;4966866;28;96838;-78
2023/07/10 07:44:03;;;;;;;2.58;1.40;;;;;;;30.19;40.84;102076.81;4969029;28;96846;-78
2023/07/10 07:46:29;;;;;;;1.75;0.93;;;;;;;30.19;40.81;102086.00;4987148;28;96560;-80
2023/07/10 07:48:56;;;;;;;2.08;1.25;;;;;;;30.20;40.64;102075.75;4982493;28;96830;-78
2023/07/10 07:51:22;;;;;;;2.35;1.27;;;;;;;30.20;40.85;102078.53;4986896;28;96879;-78
2023/07/10 07:54:02;;;;;;;2.15;1.30;;;;;;;30.21;40.74;102074.69;4980473;28;96794;-78
2023/07/10 07:56:28;;;;;;;1.63;1.27;;;;;;;30.19;40.50;102088.75;4955057;28;97078;-78
2023/07/10 07:58:55;;;;;;;1.75;1.25;;;;;;;30.20;40.39;102100.69;4998570;28;96729;-78
2023/07/10 08:01:22;;;;;;;2.83;1.10;;;;;;;30.21;40.47;102089.41;4960309;28;97090;-78
2023/07/10 08:03:49;;;;;;;1.92;1.08;;;;;;;30.19;40.48;102077.69;4971645;28;96903;-78
2023/07/10 08:06:18;;;;;;;2.13;1.27;;;;;;;30.20;40.29;102079.38;4964680;28;97323;-78
2023/07/10 08:08:48;;;;;;;1.63;1.10;;;;;;;30.21;40.51;102083.00;4971407;28;97081;-78
2023/07/10 08:11:17;;;;;;;1.38;1.10;;;;;;;30.21;40.16;102085.78;4973416;28;97412;-78
2023/07/10 08:13:46;;;;;;;1.52;1.00;;;;;;;30.21;40.19;102081.09;4982969;28;97382;-78
2023/07/10 08:16:15;;;;;;;2.65;1.17;;;;;;;30.20;40.11;102078.53;4983612;28;97122;-78
2023/07/10 08:18:43;;;;;;;1.80;1.27;;;;;;;30.20;40.16;102070.22;4985934;28;98539;-78
2023/07/10 08:21:13;;;;;;;3.58;1.30;;;;;;;30.20;40.28;102071.06;4988407;28;97647;-78
2023/07/10 08:23:40;;;;;;;1.67;1.00;;;;;;;30.20;40.05;102068.28;4990938;28;97034;-79
2023/07/10 08:26:07;;;;;;;2.20;1.40;;;;;;;30.20;40.16;102065.53;4989583;28;98352;-78
2023/07/10 08:28:42;;;;;;;1.48;1.23;;;;;;;30.19;40.12;102069.38;4972630;28;98665;-78
2023/07/10 08:31:09;;;;;;;1.90;1.00;;;;;;;30.20;39.99;102061.91;4982589;28;96564;-78
2023/07/10 08:33:36;;;;;;;2.58;1.20;;;;;;;30.21;40.12;102069.16;4980957;28;96816;-78
2023/07/10 08:36:05;;;;;;;2.40;1.10;;;;;;;30.21;40.12;102069.16;4988489;28;97947;-78
2023/07/10 08:38:35;;;;;;;1.67;1.00;;;;;;;30.20;39.72;102062.75;4962936;28;98434;-78
2023/07/10 08:41:19;;;;;;;1.85;1.10;;;;;;;30.21;39.55;102063.59;4981694;28;97203;-78
2023/07/10 08:43:51;;;;;;;3.75;1.20;;;;;;;30.20;39.87;102062.75;4982274;28;98324;-78
2023/07/10 08:46:23;;;;;;;1.75;1.00;;;;;;;30.20;39.59;102073.84;4955410;28;97549;-78
2023/07/10 08:49:03;;;;;;;2.97;1.10;;;;;;;30.22;39.56;102074.50;4986879;28;97152;-78
2023/07/10 08:51:41;;;;;;;1.88;1.08;;;;;;;30.22;39.79;102073.63;4987750;28;96722;-78
2023/07/10 08:54:12;;;;;;;1.70;1.17;;;;;;;30.22;39.75;102068.09;4988190;28;96888;-78
2023/07/10 08:56:59;;;;;;;2.53;1.20;;;;;;;30.21;39.65;102071.91;4988071;28;99899;-78
2023/07/10 08:59:50;;;;;;;1.65;1.10;;;;;;;30.21;39.44;102072.78;4982390;28;98077;-78
2023/07/10 09:02:44;;;;;;;2.10;1.20;;;;;;;30.20;39.48;102081.31;4972964;28;97055;-78
2023/07/10 09:05:19;;;;;;;1.92;1.20;;;;;;;30.19;39.35;102080.44;4985212;28;97213;-78
2023/07/10 09:07:48;;;;;;;2.80;1.20;;;;;;;30.19;39.23;102074.91;4988948;28;97734;-78
2023/07/10 09:10:20;;;;;;;2.15;1.10;;;;;;;30.21;39.21;102066.38;4969033;28;98510;-78
2023/07/10 09:12:54;;;;;;;2.72;1.17;;;;;;;30.20;39.14;102076.59;4982321;28;97102;-78
2023/07/10 09:15:27;;;;;;;3.33;1.35;;;;;;;30.20;39.23;102073.84;4986240;28;97455;-78
2023/07/10 09:18:18;;;;;;;1.75;1.00;;;;;;;30.20;39.11;102073.84;4988797;28;98122;-78
2023/07/10 09:20:49;;;;;;;3.13;1.30;;;;;;;30.20;39.29;102073.84;4968492;28;98273;-79
2023/07/10 09:23:25;;;;;;;2.97;1.38;;;;;;;30.20;39.22;102075.75;4982276;28;97160;-78
2023/07/10 09:26:10;;;;;;;2.72;1.40;;;;;;;30.20;38.81;102079.38;4989990;28;96738;-78
2023/07/10 09:28:40;;;;;;;2.13;0.90;;;;;;;30.20;39.00;102079.38;4987558;28;97029;-78
2023/07/10 09:31:35;;;;;;;3.25;1.30;;;;;;;30.20;39.15;102084.06;4986624;28;98104;-78
2023/07/10 09:34:04;;;;;;;2.08;1.20;;;;;;;30.19;39.00;102077.69;4970554;28;96738;-78
2023/07/10 09:36:30;;;;;;;2.42;1.13;;;;;;;30.19;38.92;102072.13;4988484;28;97479;-78
2023/07/10 09:38:58;;;;;;;2.15;1.25;;;;;;;30.19;38.74;102072.13;4971575;28;98519;-78
2023/07/10 09:41:28;;;;;;;2.03;1.08;;;;;;;30.21;38.77;102072.78;4970942;28;98464;-78
2023/07/10 09:44:13;;;;;;;3.60;1.52;;;;;;;30.21;38.57;102075.53;4989113;28;97268;-78
2023/07/10 09:46:45;;;;;;;2.00;1.10;;;;;;;30.19;38.74;102074.91;4981191;28;96947;-78
2023/07/10 09:49:23;;;;;;;1.77;1.00;;;;;;;30.20;38.70;102067.44;4988073;28;98018;-79
2023/07/10 09:52:04;;;;;;;2.80;1.00;;;;;;;30.20;38.52;102065.53;4984013;28;97815;-78
2023/07/10 09:54:38;;;;;;;1.60;1.10;;;;;;;30.21;38.66;102064.47;4978109;28;96868;-78
2023/07/10 09:57:16;;;;;;;1.83;1.25;;;;;;;30.20;38.50;102068.28;4981418;28;96863;-79
2023/07/10 09:59:55;;;;;;;1.80;1.10;;;;;;;30.21;38.55;102060.84;4976912;28;96926;-79
2023/07/10 10:02:27;;;;;;;1.95;1.10;;;;;;;30.20;38.60;102065.53;4984280;28;98439;-79
2023/07/10 10:05:19;;;;;;;1.40;0.85;;;;;;;30.21;38.65;102058.06;4985687;28;96951;-79
2023/07/10 10:07:53;;;;;;;2.25;1.10;;;;;;;30.21;38.49;102064.47;4987024;28;96721;-79
2023/07/10 10:10:37;;;;;;;2.65;1.13;;;;;;;30.21;38.19;102063.59;4982040;28;97689;-79
2023/07/10 10:13:14;;;;;;;2.42;1.10;;;;;;;30.19;38.30;102069.38;4963105;28;96909;-79
2023/07/10 10:15:54;;;;;;;3.38;1.20;;;;;;;30.22;38.20;102068.09;4983867;28;96761;-79
2023/07/10 10:18:43;;;;;;;1.92;0.88;;;;;;;30.21;38.46;102064.47;4976160;28;98721;-78
2023/07/10 10:21:14;;;;;;;2.53;1.00;;;;;;;30.19;38.47;102049.97;4987439;28;96823;-80
2023/07/10 10:23:43;;;;;;;2.95;1.35;;;;;;;30.21;37.98;102060.84;4982596;28;97275;-79
2023/07/10 10:26:41;;;;;;;2.22;1.00;;;;;;;30.21;38.12;102058.91;4987894;28;96827;-79
2023/07/10 10:29:43;;;;;;;2.33;1.23;;;;;;;30.20;38.19;102057.22;4975561;28;96936;-79
2023/07/10 10:32:23;;;;;;;3.10;1.30;;;;;;;30.19;38.36;102054.66;4985267;28;96897;-78
2023/07/10 10:34:52;;;;;;;0.98;0.88;;;;;;;30.18;38.16;102056.56;4968642;28;97108;-79
2023/07/10 10:37:44;;;;;;;2.50;1.10;;;;;;;30.21;38.26;102064.47;4965999;28;97177;-78
2023/07/10 10:40:19;;;;;;;2.53;0.93;;;;;;;30.19;38.27;102058.28;4980541;28;96847;-78
2023/07/10 10:43:29;;;;;;;1.92;1.10;;;;;;;30.20;38.27;102064.69;4988297;28;96891;-79
2023/07/10 10:46:30;;;;;;;1.48;0.95;;;;;;;30.18;38.15;102070.41;4953161;28;99104;-78
2023/07/10 10:49:40;;;;;;;2.50;1.00;;;;;;;30.18;38.12;102062.09;4965271;28;96939;-78
2023/07/10 10:52:17;;;;;;;2.78;1.23;;;;;;;30.17;38.06;102068.72;4986145;28;96724;-78
2023/07/10 10:55:18;;;;;;;2.75;1.15;;;;;;;30.17;37.89;102054.84;4980957;28;98556;-78
2023/07/10 10:58:06;;;;;;;3.35;1.20;;;;;;;30.18;37.94;102061.25;4984712;28;97001;-78
2023/07/10 11:01:02;;;;;;;2.25;1.00;;;;;;;30.18;38.08;102056.56;4978894;28;97052;-78
2023/07/10 11:03:36;;;;;;;3.22;1.13;;;;;;;30.18;37.96;102047.41;4974714;28;97319;-78
2023/07/10 11:06:16;;;;;;;2.65;1.00;;;;;;;30.19;37.85;102060.19;4979328;28;97139;-78
2023/07/10 11:08:48;;;;;;;2.00;1.10;;;;;;;30.19;37.74;102052.72;4966027;28;97515;-78
2023/07/10 11:11:28;;;;;;;2.03;1.20;;;;;;;30.19;37.98;102058.28;4962525;28;96830;-79
2023/07/10 11:13:55;;;;;;;3.05;1.05;;;;;;;30.19;38.14;102063.81;4963375;28;96933;-78
2023/07/10 11:16:27;;;;;;;2.17;1.10;;;;;;;30.20;38.03;102065.53;4982107;28;96976;-78
2023/07/10 11:18:56;;;;;;;2.58;1.23;;;;;;;30.20;37.91;102061.91;4972975;28;97783;-78
2023/07/10 11:21:23;;;;;;;2.38;0.85;;;;;;;30.20;37.79;102065.53;4969183;28;98040;-78
2023/07/10 11:23:55;;;;;;;2.45;1.27;;;;;;;30.21;37.51;102063.59;4985967;28;97407;-78
2023/07/10 11:26:29;;;;;;;2.25;1.15;;;;;;;30.21;37.83;102056.16;4951967;28;96777;-78
2023/07/10 11:29:28;;;;;;;1.92;0.90;;;;;;;30.22;37.57;102060.63;4981644;28;97874;-78
2023/07/10 11:31:58;;;;;;;2.92;0.90;;;;;;;30.20;37.85;102057.22;4955962;28;98925;-78
2023/07/10 11:34:25;;;;;;;1.65;0.90;;;;;;;30.21;37.66;102064.47;4993935;28;96783;-78
2023/07/10 11:36:52;;;;;;;1.50;0.98;;;;;;;30.22;37.84;102057.00;4976079;28;97627;-79
2023/07/10 11:39:33;;;;;;;1.65;0.90;;;;;;;30.24;37.65;102052.09;4968931;28;96803;-79
2023/07/10 11:42:17;;;;;;;2.80;0.90;;;;;;;30.22;37.47;102044.00;4975957;28;97574;-79